createdAt,value
2022-10-04T00:00:42.261Z,1.67
2022-10-04T00:06:26.327Z,1.73
2022-10-04T00:11:57.775Z,1.52
2022-10-04T00:17:35.968Z,1.27
2022-10-04T00:23:25.223Z,1.50
2022-10-04T00:28:56.351Z,1.60
2022-10-04T00:34:30.162Z,1.25
2022-10-04T00:40:12.884Z,1.20
2022-10-04T00:45:47.425Z,1.20
2022-10-04T00:51:20.064Z,1.20
2022-10-04T00:56:52.593Z,1.23
2022-10-04T01:02:34.294Z,1.20
2022-10-04T01:08:20.504Z,1.25
2022-10-04T01:13:57.285Z,1.20
2022-10-04T01:19:32.387Z,1.25
2022-10-04T01:25:04.373Z,1.35
2022-10-04T01:30:35.414Z,1.17
2022-10-04T01:36:06.718Z,1.33
2022-10-04T01:41:47.679Z,1.00
2022-10-04T01:47:27.268Z,1.42
2022-10-04T01:53:06.450Z,1.40
2022-10-04T01:58:47.590Z,1.02
2022-10-04T02:04:26.116Z,1.50
2022-10-04T02:10:02.272Z,1.45
2022-10-04T02:15:35.989Z,1.30
2022-10-04T02:21:07.913Z,1.48
2022-10-04T02:26:39.603Z,1.60
2022-10-04T02:32:29.696Z,1.13
2022-10-04T02:38:08.217Z,1.38
2022-10-04T02:43:47.698Z,1.13
2022-10-04T02:49:32.162Z,1.10
2022-10-04T02:55:18.839Z,1.20
2022-10-04T03:00:58.979Z,1.40
2022-10-04T03:06:32.612Z,1.38
2022-10-04T03:17:35.573Z,1.55
2022-10-04T03:23:08.182Z,1.40
2022-10-04T03:28:39.282Z,1.70
2022-10-04T03:34:15.958Z,1.58
2022-10-04T03:39:48.872Z,1.35
2022-10-04T03:45:21.023Z,1.47
2022-10-04T03:50:53.555Z,1.77
2022-10-04T03:56:30.573Z,1.80
2022-10-04T04:02:11.448Z,1.85
2022-10-04T04:08:01.437Z,1.90
2022-10-04T04:14:00.728Z,1.88
2022-10-04T04:19:33.005Z,1.85
2022-10-04T04:25:08.526Z,1.65
2022-10-04T04:30:44.690Z,1.73
2022-10-04T04:36:17.357Z,1.40
2022-10-04T04:41:50.773Z,1.65
2022-10-04T04:47:38.561Z,1.50
2022-10-04T04:53:29.539Z,1.73
2022-10-04T04:59:04.117Z,1.90
2022-10-04T05:04:34.988Z,1.77
2022-10-04T05:10:21.539Z,1.60
2022-10-04T05:15:54.609Z,1.88
2022-10-04T05:21:28.810Z,1.83
2022-10-04T05:27:08.238Z,1.80
2022-10-04T05:32:54.605Z,1.95
2022-10-04T05:38:39.909Z,1.63
2022-10-04T05:44:26.295Z,1.80
2022-10-04T05:49:59.388Z,1.65
2022-10-04T05:55:51.244Z,1.80
2022-10-04T06:02:07.520Z,1.77
2022-10-04T06:07:51.045Z,2.03
2022-10-04T06:13:51.578Z,2.20
2022-10-04T06:19:45.413Z,1.70
2022-10-04T06:25:23.844Z,1.77
2022-10-04T06:31:33.634Z,1.80
2022-10-04T06:37:38.167Z,1.70
2022-10-04T06:43:12.108Z,1.80
2022-10-04T06:49:02.399Z,1.75
2022-10-04T06:54:33.141Z,1.75
2022-10-04T07:00:10.343Z,1.75
2022-10-04T07:05:49.025Z,1.90
2022-10-04T07:11:32.890Z,1.58
2022-10-04T07:17:13.834Z,1.67
2022-10-04T07:22:58.594Z,1.80
2022-10-04T07:28:52.772Z,1.90
2022-10-04T07:34:28.999Z,1.63
2022-10-04T07:40:18.589Z,1.90
2022-10-04T07:45:49.874Z,1.90
2022-10-04T07:51:37.058Z,2.22
2022-10-04T07:57:14.094Z,2.50
2022-10-04T08:03:10.565Z,1.77
2022-10-04T08:09:07.485Z,1.90
2022-10-04T08:14:54.939Z,1.77
2022-10-04T08:20:58.140Z,1.80
2022-10-04T08:26:46.644Z,1.70
2022-10-04T08:32:23.769Z,1.50
2022-10-04T08:38:27.625Z,2.00
2022-10-04T08:44:17.455Z,1.67
2022-10-04T08:50:10.368Z,1.73
2022-10-04T08:55:49.335Z,1.77
2022-10-04T09:01:42.243Z,1.83
2022-10-04T09:07:49.656Z,1.60
2022-10-04T09:13:31.492Z,1.40
2022-10-04T09:19:08.175Z,1.60
2022-10-04T09:24:45.218Z,1.50
2022-10-04T09:30:21.694Z,1.80
2022-10-04T09:36:05.048Z,1.40
2022-10-04T09:41:48.560Z,1.55
2022-10-04T09:47:46.221Z,1.60
2022-10-04T09:53:29.168Z,1.80
2022-10-04T09:59:27.530Z,1.50
2022-10-04T10:05:27.265Z,1.70
2022-10-04T10:11:26.047Z,1.45
2022-10-04T10:17:20.967Z,1.52
2022-10-04T10:23:19.705Z,1.67
2022-10-04T10:29:24.758Z,1.50
2022-10-04T10:35:09.150Z,1.35
2022-10-04T10:41:11.380Z,1.63
2022-10-04T10:46:49.697Z,1.90
2022-10-04T10:52:59.602Z,1.50
2022-10-04T10:58:54.777Z,1.40
2022-10-04T11:04:38.417Z,1.60
2022-10-04T11:10:23.732Z,1.85
2022-10-04T11:16:08.131Z,1.50
2022-10-04T11:22:07.026Z,1.42
2022-10-04T11:27:59.853Z,1.50
2022-10-04T11:34:16.521Z,1.50
2022-10-04T11:40:04.567Z,1.20
2022-10-04T11:46:14.282Z,1.20
2022-10-04T11:52:12.773Z,1.35
2022-10-04T11:58:11.736Z,1.02
2022-10-04T12:03:48.957Z,1.20
2022-10-04T12:09:43.040Z,1.30
2022-10-04T12:15:14.501Z,1.23
2022-10-04T12:20:53.400Z,1.30
2022-10-04T12:26:53.116Z,1.20
2022-10-04T12:33:03.604Z,1.30
2022-10-04T12:38:56.631Z,1.48
2022-10-04T12:44:42.451Z,1.30
2022-10-04T12:50:36.298Z,1.30
2022-10-04T12:56:22.042Z,1.30
2022-10-04T13:02:03.057Z,1.42
2022-10-04T13:07:53.029Z,1.20
2022-10-04T13:13:48.485Z,1.45
2022-10-04T13:19:39.837Z,1.27
2022-10-04T13:25:30.008Z,1.05
2022-10-04T13:31:43.272Z,1.50
2022-10-04T13:37:33.711Z,1.10
2022-10-04T13:43:26.367Z,1.10
2022-10-04T13:49:21.897Z,1.27
2022-10-04T13:55:20.583Z,1.30
2022-10-04T14:01:06.975Z,1.05
2022-10-04T14:06:57.430Z,1.20
2022-10-04T14:12:34.362Z,1.10
2022-10-04T14:19:04.237Z,1.30
2022-10-04T14:24:46.501Z,1.40
2022-10-04T14:30:23.929Z,1.17
2022-10-04T14:36:09.027Z,1.10
2022-10-04T14:42:06.801Z,1.08
2022-10-04T14:48:02.552Z,1.33
2022-10-04T14:54:11.918Z,1.25
2022-10-04T14:59:51.664Z,1.02
2022-10-04T15:05:37.835Z,1.00
2022-10-04T15:11:13.675Z,1.38
2022-10-04T15:16:56.806Z,1.20
2022-10-04T15:22:31.863Z,1.20
2022-10-04T15:28:06.206Z,1.20
2022-10-04T15:34:06.086Z,1.15
2022-10-04T15:40:04.157Z,1.20
2022-10-04T15:46:16.599Z,1.50
2022-10-04T15:52:11.312Z,1.27
2022-10-04T15:57:45.269Z,1.20
2022-10-04T16:03:21.303Z,1.20
2022-10-04T16:09:05.383Z,1.15
2022-10-04T16:14:47.020Z,1.30
2022-10-04T16:20:24.537Z,1.08
2022-10-04T16:26:07.214Z,1.10
2022-10-04T16:31:51.597Z,1.20
2022-10-04T16:37:32.108Z,1.35
2022-10-04T16:43:14.103Z,1.20
2022-10-04T16:48:53.926Z,1.30
2022-10-04T16:54:59.218Z,1.42
2022-10-04T17:00:36.526Z,1.42
2022-10-04T17:06:15.469Z,1.40
2022-10-04T17:12:08.070Z,1.38
2022-10-04T17:17:47.624Z,1.50
2022-10-04T17:24:06.989Z,1.40
2022-10-04T17:30:05.743Z,1.30
2022-10-04T17:35:59.108Z,1.60
2022-10-04T17:41:52.237Z,1.00
2022-10-04T17:48:00.357Z,1.20
2022-10-04T17:53:52.937Z,1.23
2022-10-04T17:59:30.869Z,1.52
2022-10-04T18:05:08.682Z,1.50
2022-10-04T18:10:56.510Z,1.30
2022-10-04T18:16:31.647Z,1.42
2022-10-04T18:22:15.244Z,1.30
2022-10-04T18:27:53.435Z,1.30
2022-10-04T18:33:36.001Z,1.48
2022-10-04T18:39:13.573Z,1.30
2022-10-04T18:44:59.548Z,1.30
2022-10-04T18:50:43.747Z,1.38
2022-10-04T18:56:15.692Z,1.30
2022-10-04T19:02:03.361Z,1.20
2022-10-04T19:07:43.978Z,1.50
2022-10-04T19:13:37.687Z,1.40
2022-10-04T19:19:14.816Z,1.83
2022-10-04T19:25:10.400Z,1.58
2022-10-04T19:31:09.621Z,1.77
2022-10-04T19:36:47.092Z,1.70
2022-10-04T19:42:33.540Z,1.88
2022-10-04T19:48:24.263Z,1.80
2022-10-04T19:54:04.052Z,1.80
2022-10-04T19:59:41.934Z,2.00
2022-10-04T20:05:26.859Z,1.90
2022-10-04T20:11:23.490Z,1.50
2022-10-04T20:16:54.722Z,1.63
2022-10-04T20:22:28.899Z,1.85
2022-10-04T20:28:01.969Z,1.90
2022-10-04T20:33:47.303Z,1.50
2022-10-04T20:39:42.737Z,2.25
2022-10-04T20:45:20.273Z,1.95
2022-10-04T20:50:52.776Z,2.15
2022-10-04T20:56:29.132Z,2.22
2022-10-04T21:02:05.339Z,1.98
2022-10-04T21:07:36.872Z,1.88
2022-10-04T21:13:44.145Z,1.80
2022-10-04T21:19:33.784Z,2.20
2022-10-04T21:25:25.862Z,2.08
2022-10-04T21:30:56.996Z,1.80
2022-10-04T21:36:28.236Z,2.42
2022-10-04T21:41:59.098Z,2.10
2022-10-04T21:47:30.003Z,2.15
2022-10-04T21:53:01.185Z,2.00
2022-10-04T21:58:32.429Z,1.70
2022-10-04T22:04:03.443Z,1.80
2022-10-04T22:09:36.135Z,1.92
2022-10-04T22:15:07.538Z,1.95
2022-10-04T22:20:38.826Z,1.92
2022-10-04T22:26:17.982Z,1.92
2022-10-04T22:31:52.801Z,1.83
2022-10-04T22:37:25.398Z,1.70
2022-10-04T22:42:57.602Z,2.00
2022-10-04T22:48:29.209Z,1.80
2022-10-04T22:54:00.690Z,1.60
2022-10-04T22:59:38.766Z,1.42
2022-10-04T23:05:16.747Z,1.75
2022-10-04T23:10:47.820Z,2.13
2022-10-04T23:16:21.659Z,1.50
2022-10-04T23:21:52.912Z,1.95
2022-10-04T23:27:23.964Z,1.70
2022-10-04T23:32:58.448Z,1.73
2022-10-04T23:38:30.679Z,1.67
2022-10-04T23:44:01.720Z,1.90
2022-10-04T23:49:32.665Z,1.77
2022-10-04T23:55:24.897Z,1.70
